Airfield :
LOGIN :

Register | Disclaimer

   EN    FR    IT 

 










Legend :    VFR   Marginal VFR   IFR   Intensive IFR   Very Intensive IFR
Visi :
Ceiling :
>= 8 km
>= 3000ft
5 to 8 km
1000 to 3000 ft
1500m to 5 km
500 to 1000 ft
800 to 1500m
200 to 500 ft
< 800m
< 200 ft
Symbols :   Thunderstorms  Fog  Heavy snow  Heavy precipitations  Wind > 20 kt
SIGMETs :     Misc.  Thunderstorms  Icing  Turbulence  Mountain Waves  Volcanic Ashes







- Airport Elevation : 1460 ft


LSMA - Alpnach

CURRENT METAR :
  • 180650Z AUTO 00000KT 2900NDV -SN FEW008 BKN013 M02/M03 Q1022 RMK

EXPIRED METARs :
  • 180549Z AUTO 00000KT 3800NDV -SN BKN020 BKN026 OVC037 M02/M03 Q1023 RMK
  • 180450Z AUTO 00000KT 9999NDV BKN062 OVC073 M02/M04 Q1024 RMK

Expired Forecast.
No reported NOTAMs for that airfield.
1 SIGMET reported for the Switzerland FIR (LSAS) :
 
Severe icing
LSAS SIGMET 1 VALID 180543/180700 LSZH
LSAS SWITZERLAND FIR SEV ICE FCST NW OF LINE N4554 E00636 - N4739 E00803 SFC/FL120 MOV E 10KT NC=



MET'MAP, your aeronautical weather chart ! - Copyright ORBIFLY December 2007 - Disclaimer

ORBIFLY MET'MAP TEAM :

Programming & Development : Alexandra Zaïnal
Concept & Development : Baudouin d'Aumeries
Co-Development & Prog : Marc-Olivier Méhu
Technical & hardware support : Manuel Goepfert

Contact : metmap@orbifly.com




SOURCES & CREDITS :

   NOAA